Time;durP1;ratioP1;P1;durP2;ratioP2;P2;SDS_P1;SDS_P2;PMS_P1;PMS_P2;Temp;Humidity;BMP_temperature;BMP_pressure;BME280_temperature;BME280_humidity;BME280_pressure;Samples;Min_cycle;Max_cycle;Signal;HPM_P1;HPM_P2
2021/05/11 00:01:45;;;;;;;5.20;1.83;;;14.80;99.90;;;;;;5081815;28;20295;-74
2021/05/11 00:04:12;;;;;;;5.93;2.10;;;14.90;99.90;;;;;;5071094;28;20702;-74
2021/05/11 00:06:40;;;;;;;4.77;2.10;;;14.80;99.90;;;;;;5071050;28;20210;-75
2021/05/11 00:09:07;;;;;;;7.67;2.20;;;14.70;99.90;;;;;;5072333;28;20685;-75
2021/05/11 00:11:34;;;;;;;6.47;2.27;;;14.60;99.90;;;;;;5072483;28;20195;-74
2021/05/11 00:14:03;;;;;;;3.83;2.20;;;14.50;99.90;;;;;;5072703;28;20238;-74
2021/05/11 00:16:29;;;;;;;9.07;2.60;;;14.40;99.90;;;;;;5072748;28;20195;-75
2021/05/11 00:18:56;;;;;;;8.70;2.60;;;14.30;99.90;;;;;;5072492;28;20199;-73
2021/05/11 00:21:22;;;;;;;7.70;2.93;;;14.30;99.90;;;;;;5072471;28;20195;-74
2021/05/11 00:23:50;;;;;;;9.00;2.67;;;14.20;99.90;;;;;;5072361;28;20279;-74
2021/05/11 00:26:16;;;;;;;4.37;2.70;;;14.20;99.90;;;;;;5072525;28;20203;-73
2021/05/11 00:28:42;;;;;;;7.13;2.80;;;14.10;99.90;;;;;;5072654;28;20422;-74
2021/05/11 00:31:09;;;;;;;6.43;2.90;;;14.00;99.90;;;;;;5075081;28;20196;-74
2021/05/11 00:33:35;;;;;;;6.90;2.67;;;13.90;99.90;;;;;;5076177;28;20332;-74
2021/05/11 00:36:01;;;;;;;6.63;3.40;;;13.90;99.90;;;;;;5076050;28;20592;-75
2021/05/11 00:38:27;;;;;;;9.10;3.10;;;13.90;99.90;;;;;;5075936;28;20196;-75
2021/05/11 00:40:55;;;;;;;7.30;3.40;;;13.80;99.90;;;;;;5075818;28;20233;-74
2021/05/11 00:43:21;;;;;;;7.97;3.10;;;13.90;99.90;;;;;;5076140;28;20194;-74
2021/05/11 00:45:47;;;;;;;7.87;3.07;;;13.90;99.90;;;;;;5075620;28;20629;-74
2021/05/11 00:48:14;;;;;;;8.43;2.90;;;13.80;99.90;;;;;;5075472;28;20223;-75
2021/05/11 00:50:40;;;;;;;7.60;2.90;;;13.70;99.90;;;;;;5075755;28;20187;-73
2021/05/11 00:53:07;;;;;;;7.03;3.30;;;13.60;99.90;;;;;;5075594;28;20197;-74
2021/05/11 00:55:33;;;;;;;7.53;2.70;;;13.60;99.90;;;;;;5075620;28;20192;-74
2021/05/11 00:58:01;;;;;;;6.17;2.77;;;13.60;99.90;;;;;;5075802;28;20195;-74
2021/05/11 01:00:27;;;;;;;6.43;2.60;;;13.50;99.90;;;;;;5075364;28;20557;-74
2021/05/11 01:02:54;;;;;;;6.50;2.47;;;13.40;99.90;;;;;;5075536;28;20245;-74
2021/05/11 01:05:20;;;;;;;7.47;2.13;;;13.30;99.90;;;;;;5075459;28;20294;-74
2021/05/11 01:07:47;;;;;;;4.93;2.20;;;13.30;99.90;;;;;;5075435;28;20196;-73
2021/05/11 01:10:13;;;;;;;7.00;2.80;;;13.20;99.90;;;;;;5075239;28;20754;-73
2021/05/11 01:12:40;;;;;;;7.00;2.50;;;13.30;99.90;;;;;;5075345;28;20192;-74
2021/05/11 01:15:08;;;;;;;6.70;2.43;;;13.20;99.90;;;;;;5075217;28;20226;-75
2021/05/11 01:17:36;;;;;;;6.60;2.27;;;13.20;99.90;;;;;;5075056;28;20201;-74
2021/05/11 01:20:06;;;;;;;8.97;2.53;;;13.20;99.90;;;;;;5075144;28;20241;-74
2021/05/11 01:22:50;;;;;;;6.37;2.50;;;13.20;99.90;;;;;;5074978;28;20708;-74
2021/05/11 01:25:19;;;;;;;5.20;2.23;;;13.10;99.90;;;;;;5075018;28;20191;-75
2021/05/11 01:44:45;;;;;;;3.67;1.77;;;12.80;99.90;;;;;;5053391;28;20192;-75
2021/05/11 01:50:09;;;;;;;4.50;2.00;;;12.70;99.90;;;;;;5063801;28;20225;-75
2021/05/11 01:52:46;;;;;;;7.50;2.27;;;12.60;99.90;;;;;;5074434;28;20652;-73
2021/05/11 01:55:25;;;;;;;7.20;1.90;;;12.50;99.90;;;;;;5074501;28;20248;-74
2021/05/11 02:22:40;;;;;;;4.20;2.00;;;12.10;99.90;;;;;;5073897;28;20244;-73
2021/05/11 02:25:07;;;;;;;7.43;2.57;;;12.00;99.90;;;;;;5073765;28;20591;-73
2021/05/11 02:27:35;;;;;;;10.70;3.00;;;11.90;99.90;;;;;;5073681;28;20197;-74
2021/05/11 02:30:02;;;;;;;5.73;1.90;;;11.90;99.90;;;;;;5073618;28;20292;-75
2021/05/11 02:32:28;;;;;;;9.03;2.77;;;12.00;99.90;;;;;;5073828;28;20338;-74
2021/05/11 02:34:54;;;;;;;10.07;2.50;;;11.90;99.90;;;;;;5073739;28;20289;-74
2021/05/11 02:37:21;;;;;;;6.03;2.40;;;11.90;99.90;;;;;;5073629;28;20252;-73
2021/05/11 02:39:47;;;;;;;8.00;2.67;;;11.80;99.90;;;;;;5073478;28;20250;-74
2021/05/11 02:42:14;;;;;;;9.60;2.50;;;11.80;99.90;;;;;;5073817;28;20251;-74
2021/05/11 02:44:42;;;;;;;11.73;2.73;;;11.70;99.90;;;;;;5073691;28;20195;-75
2021/05/11 02:47:09;;;;;;;8.40;2.27;;;11.70;99.90;;;;;;5073535;28;20198;-74
2021/05/11 02:49:38;;;;;;;11.20;2.50;;;11.80;99.90;;;;;;5073467;28;20246;-74
2021/05/11 02:52:05;;;;;;;9.80;3.10;;;11.70;99.90;;;;;;5073060;28;20194;-74
2021/05/11 02:54:31;;;;;;;10.73;2.53;;;11.60;99.90;;;;;;5073077;28;20203;-76
2021/05/11 02:56:57;;;;;;;6.03;2.43;;;11.60;99.90;;;;;;5073167;28;20667;-74
2021/05/11 02:59:24;;;;;;;8.17;2.40;;;11.60;99.90;;;;;;5073473;28;20282;-73
2021/05/11 03:01:51;;;;;;;6.33;2.17;;;11.60;99.90;;;;;;5073463;28;20188;-74
2021/05/11 03:04:18;;;;;;;6.70;2.80;;;11.60;99.90;;;;;;5073312;28;20330;-74
2021/05/11 03:06:44;;;;;;;7.40;2.30;;;11.50;99.90;;;;;;5073490;28;20230;-74
2021/05/11 03:09:11;;;;;;;8.40;2.70;;;11.50;99.90;;;;;;5073295;28;20317;-74
2021/05/11 03:11:37;;;;;;;7.93;2.73;;;11.50;99.90;;;;;;5073531;28;20191;-74
2021/05/11 03:14:04;;;;;;;5.23;2.73;;;11.50;99.90;;;;;;5073314;28;20191;-74
2021/05/11 03:16:31;;;;;;;7.77;2.80;;;11.50;99.90;;;;;;5073136;28;20195;-74
2021/05/11 03:18:58;;;;;;;8.97;2.40;;;11.40;99.90;;;;;;5073194;28;20222;-74
2021/05/11 03:21:25;;;;;;;8.87;2.33;;;11.40;99.90;;;;;;5073079;28;20285;-73
2021/05/11 03:23:51;;;;;;;8.17;3.03;;;11.30;99.90;;;;;;5073270;28;20284;-75
2021/05/11 03:26:17;;;;;;;8.83;2.73;;;11.30;99.90;;;;;;5073228;28;20195;-74
2021/05/11 03:28:44;;;;;;;8.10;2.40;;;11.20;99.90;;;;;;5073131;28;20225;-76
2021/05/11 03:31:10;;;;;;;7.57;2.70;;;11.20;99.90;;;;;;5073172;28;20221;-74
2021/05/11 03:33:36;;;;;;;10.13;2.93;;;11.10;99.90;;;;;;5072994;28;20269;-75
2021/05/11 03:36:05;;;;;;;8.50;2.33;;;11.10;99.90;;;;;;5073020;28;20209;-73
2021/05/11 03:38:31;;;;;;;14.77;2.53;;;11.10;99.90;;;;;;5072863;28;20202;-74
2021/05/11 03:40:58;;;;;;;5.13;2.23;;;11.10;99.90;;;;;;5072963;28;20705;-75
2021/05/11 03:43:27;;;;;;;7.37;2.67;;;11.10;99.90;;;;;;5075065;28;20198;-76
2021/05/11 03:45:56;;;;;;;8.93;3.00;;;11.00;99.90;;;;;;5074437;28;20198;-74
2021/05/11 03:48:23;;;;;;;9.00;2.70;;;11.00;99.90;;;;;;5073932;28;20198;-73
2021/05/11 03:50:49;;;;;;;7.73;2.70;;;11.00;99.90;;;;;;5074448;28;20254;-74
2021/05/11 03:53:16;;;;;;;11.13;2.90;;;11.00;99.90;;;;;;5073599;28;20192;-75
2021/05/11 03:55:43;;;;;;;9.17;3.43;;;11.00;99.90;;;;;;5073458;28;20187;-74
2021/05/11 03:58:09;;;;;;;7.93;3.00;;;10.90;99.90;;;;;;5072815;28;20687;-73
2021/05/11 04:00:35;;;;;;;12.97;3.63;;;11.00;99.90;;;;;;5072841;28;20194;-73
2021/05/11 04:03:02;;;;;;;7.80;2.70;;;11.00;99.90;;;;;;5072864;28;20191;-74
2021/05/11 04:05:28;;;;;;;11.43;3.00;;;11.10;99.90;;;;;;5074671;28;20233;-76
2021/05/11 04:07:57;;;;;;;10.47;2.80;;;11.10;99.90;;;;;;5076488;28;20285;-75
2021/05/11 04:10:31;;;;;;;11.37;3.03;;;11.10;99.90;;;;;;5076344;28;20703;-74
2021/05/11 04:18:28;;;;;;;12.07;3.27;;;11.10;99.90;;;;;;5076310;28;20249;-74
2021/05/11 04:20:54;;;;;;;7.93;2.70;;;11.10;99.90;;;;;;5081984;28;20294;-75
2021/05/11 04:23:21;;;;;;;8.37;2.60;;;11.20;99.90;;;;;;5086171;28;20222;-74
2021/05/11 04:25:48;;;;;;;7.60;3.10;;;11.20;99.90;;;;;;5086260;28;20229;-74
2021/05/11 04:28:14;;;;;;;10.70;2.83;;;11.30;99.90;;;;;;5084489;28;20194;-74
2021/05/11 04:30:40;;;;;;;9.23;2.70;;;11.40;99.90;;;;;;5086230;28;20205;-74
2021/05/11 04:33:07;;;;;;;6.67;2.70;;;11.40;99.90;;;;;;5086277;28;20218;-76
2021/05/11 04:35:33;;;;;;;5.87;2.83;;;11.40;99.90;;;;;;5084479;28;20194;-74
2021/05/11 04:37:59;;;;;;;7.63;2.73;;;11.50;99.90;;;;;;5086270;28;20651;-74
2021/05/11 04:40:26;;;;;;;9.20;2.90;;;11.50;99.90;;;;;;5083619;28;20284;-75
2021/05/11 04:42:53;;;;;;;10.47;3.40;;;11.50;99.90;;;;;;5075461;28;20219;-75
2021/05/11 04:45:22;;;;;;;12.73;3.27;;;11.60;99.90;;;;;;5072854;28;20194;-74
2021/05/11 04:47:50;;;;;;;9.87;3.37;;;11.60;99.90;;;;;;5075032;28;20209;-74
2021/05/11 04:50:18;;;;;;;7.63;3.37;;;11.60;99.90;;;;;;5073672;28;20247;-75
2021/05/11 04:52:45;;;;;;;10.03;3.03;;;11.50;99.90;;;;;;5083823;28;20190;-75
2021/05/11 04:55:12;;;;;;;6.77;3.00;;;11.60;99.90;;;;;;5083034;28;20310;-74
2021/05/11 04:57:39;;;;;;;11.93;3.07;;;11.60;99.90;;;;;;5085684;28;20296;-75
2021/05/11 05:00:10;;;;;;;14.20;3.40;;;11.60;99.90;;;;;;5085180;28;20229;-74
2021/05/11 05:02:39;;;;;;;6.83;3.00;;;11.60;99.90;;;;;;5083601;28;20194;-74
2021/05/11 05:05:06;;;;;;;10.90;3.00;;;11.70;99.90;;;;;;5084298;28;20222;-74
2021/05/11 05:07:32;;;;;;;6.43;3.00;;;11.70;99.90;;;;;;5085521;28;20220;-74
2021/05/11 05:09:59;;;;;;;6.47;3.50;;;11.90;99.90;;;;;;5083772;28;20670;-75
2021/05/11 05:12:25;;;;;;;9.07;3.20;;;11.90;99.90;;;;;;5083901;28;20284;-74
2021/05/11 05:14:51;;;;;;;11.57;2.83;;;12.10;99.90;;;;;;5082420;28;20203;-75
2021/05/11 05:17:19;;;;;;;11.53;2.80;;;12.30;99.90;;;;;;5076342;28;20195;-76
2021/05/11 05:19:45;;;;;;;9.77;2.90;;;12.50;99.90;;;;;;5080525;28;20191;-75
2021/05/11 05:22:12;;;;;;;9.37;2.60;;;12.70;99.90;;;;;;5076760;28;20184;-75
2021/05/11 05:24:41;;;;;;;13.33;3.10;;;12.90;99.90;;;;;;5076981;28;20198;-74
2021/05/11 05:27:14;;;;;;;8.53;2.60;;;13.10;99.90;;;;;;5081967;28;20191;-74
2021/05/11 05:29:41;;;;;;;8.23;3.00;;;13.30;99.90;;;;;;5072459;28;20212;-74
2021/05/11 05:32:08;;;;;;;8.83;2.80;;;13.60;99.90;;;;;;5075687;28;20215;-75
2021/05/11 05:34:35;;;;;;;8.40;3.17;;;13.90;99.90;;;;;;5082573;28;20202;-76
2021/05/11 05:37:02;;;;;;;12.27;3.17;;;14.20;99.90;;;;;;5085016;28;20243;-75
2021/05/11 05:39:32;;;;;;;9.80;3.90;;;14.40;99.90;;;;;;5085895;28;20293;-75
2021/05/11 05:41:59;;;;;;;12.20;4.17;;;14.80;99.90;;;;;;5062973;28;20203;-76
2021/05/11 05:44:25;;;;;;;10.57;3.03;;;15.30;99.90;;;;;;5080154;28;20493;-75
2021/05/11 05:46:51;;;;;;;9.93;2.60;;;15.80;99.90;;;;;;5074356;28;20270;-75
2021/05/11 05:49:18;;;;;;;7.40;2.77;;;16.80;99.90;;;;;;5074220;28;20238;-78
2021/05/11 05:51:48;;;;;;;8.00;2.20;;;18.00;99.90;;;;;;5073388;28;20759;-71
2021/05/11 05:54:15;;;;;;;8.27;2.50;;;19.20;99.90;;;;;;5064344;28;20221;-74
2021/05/11 05:56:41;;;;;;;6.23;2.80;;;20.10;99.90;;;;;;5084287;28;20939;-75
2021/05/11 05:59:08;;;;;;;10.77;3.50;;;21.10;99.90;;;;;;5077007;28;20199;-76
2021/05/11 06:01:35;;;;;;;8.13;3.10;;;21.30;99.90;;;;;;5079114;28;20195;-77
2021/05/11 06:04:07;;;;;;;7.10;3.00;;;21.30;99.90;;;;;;5062220;28;20211;-77
2021/05/11 06:06:34;;;;;;;7.63;3.50;;;21.10;99.90;;;;;;5076155;28;20210;-75
2021/05/11 06:09:01;;;;;;;6.83;3.47;;;20.80;99.90;;;;;;5054511;28;20681;-74
2021/05/11 06:11:36;;;;;;;9.47;3.50;;;20.50;99.90;;;;;;5066000;28;20196;-78
2021/05/11 06:14:11;;;;;;;8.73;3.53;;;20.50;99.90;;;;;;5053265;28;20188;-78
2021/05/11 06:19:21;;;;;;;13.80;4.07;;;22.50;99.90;;;;;;5053777;28;20202;-74
2021/05/11 06:21:49;;;;;;;11.30;3.30;;;24.20;99.90;;;;;;5054825;28;20587;-80
2021/05/11 06:24:16;;;;;;;9.73;3.35;;;26.00;99.90;;;;;;5059732;28;20188;-79
2021/05/11 06:26:43;;;;;;;7.22;3.47;;;27.60;99.90;;;;;;5073444;28;20195;-74
2021/05/11 06:29:10;;;;;;;9.45;3.20;;;28.20;99.90;;;;;;5055247;28;20278;-79
2021/05/11 06:31:37;;;;;;;10.98;3.58;;;28.20;99.90;;;;;;5066393;28;20278;-78
2021/05/11 06:34:05;;;;;;;7.13;3.00;;;28.30;99.90;;;;;;5073624;28;20244;-78
2021/05/11 06:36:31;;;;;;;11.70;3.22;;;28.20;99.90;;;;;;5073177;28;20195;-75
2021/05/11 06:38:58;;;;;;;10.60;3.30;;;27.70;99.90;;;;;;5062068;28;20357;-74
2021/05/11 06:41:26;;;;;;;11.20;2.97;;;27.10;99.90;;;;;;5053446;28;20584;-78
2021/05/11 06:43:56;;;;;;;20.05;3.80;;;26.40;99.90;;;;;;5053578;28;20203;-74
2021/05/11 06:54:34;;;;;;;17.38;3.40;;;24.20;99.90;;;;;;5062478;28;20241;-74
2021/05/11 06:57:02;;;;;;;15.85;3.30;;;23.60;99.90;;;;;;5065277;28;20576;-74
2021/05/11 06:59:29;;;;;;;10.80;3.40;;;23.00;99.90;;;;;;5071056;28;20199;-76
2021/05/11 07:01:55;;;;;;;7.90;3.03;;;22.70;99.90;;;;;;5065030;28;20199;-74
2021/05/11 07:04:22;;;;;;;7.78;2.55;;;22.40;99.90;;;;;;5069405;28;20191;-76
2021/05/11 07:06:48;;;;;;;9.73;2.95;;;22.10;99.90;;;;;;5072527;28;20229;-74
2021/05/11 07:09:18;;;;;;;6.82;2.75;;;21.70;99.90;;;;;;5072249;28;20314;-77
2021/05/11 07:14:30;;;;;;;8.27;2.97;;;21.30;99.90;;;;;;5072756;28;20676;-74
2021/05/11 07:16:56;;;;;;;6.22;2.22;;;21.00;99.90;;;;;;5072854;28;20249;-78
2021/05/11 07:19:22;;;;;;;5.75;2.40;;;21.00;99.90;;;;;;5072237;28;20278;-75
2021/05/11 07:21:49;;;;;;;6.18;2.53;;;20.90;99.90;;;;;;5073077;28;20302;-75
2021/05/11 07:24:15;;;;;;;6.50;2.25;;;20.70;99.90;;;;;;5072606;28;20370;-75
2021/05/11 07:26:58;;;;;;;6.30;2.08;;;20.40;99.90;;;;;;5073628;28;20227;-80
2021/05/11 07:29:39;;;;;;;5.88;2.33;;;20.30;99.90;;;;;;5071297;28;20298;-77
2021/05/11 07:32:06;;;;;;;11.00;2.47;;;20.20;99.90;;;;;;5056198;28;20228;-74
2021/05/11 07:34:33;;;;;;;4.53;2.10;;;20.00;99.90;;;;;;5073169;28;20191;-74
2021/05/11 07:37:00;;;;;;;37.37;4.40;;;20.10;99.90;;;;;;5071482;28;20192;-75
2021/05/11 07:39:26;;;;;;;49.77;6.63;;;20.00;99.90;;;;;;5071464;28;20229;-74
2021/05/11 07:41:52;;;;;;;9.73;2.40;;;20.00;99.90;;;;;;5074863;28;20526;-76
2021/05/11 07:44:19;;;;;;;4.97;2.50;;;20.00;99.90;;;;;;5076360;28;20285;-76
2021/05/11 07:46:52;;;;;;;6.75;2.08;;;20.60;99.90;;;;;;5076057;28;20662;-74
2021/05/11 07:49:41;;;;;;;8.90;2.38;;;21.50;99.90;;;;;;5070763;28;20723;-77
2021/05/11 08:16:49;;;;;;;3.03;1.23;;;26.00;99.90;;;;;;5075852;28;20219;-74
2021/05/11 08:19:29;;;;;;;3.33;1.20;;;26.20;99.90;;;;;;5070679;28;20192;-76
2021/05/11 08:22:17;;;;;;;7.75;1.85;;;26.10;99.90;;;;;;5073468;28;20245;-77
2021/05/11 08:27:33;;;;;;;8.45;1.92;;;25.40;99.90;;;;;;5073276;28;20305;-75
2021/05/11 08:30:00;;;;;;;5.43;1.83;;;24.90;99.90;;;;;;5066869;28;20224;-78
2021/05/11 08:32:26;;;;;;;7.05;1.90;;;24.30;99.90;;;;;;5073667;28;20211;-74
2021/05/11 08:34:52;;;;;;;5.28;1.85;;;23.90;99.90;;;;;;5074254;28;20195;-74
2021/05/11 08:37:20;;;;;;;6.82;1.50;;;23.90;99.90;;;;;;5074952;28;20203;-74
2021/05/11 08:39:46;;;;;;;4.28;1.67;;;23.80;99.90;;;;;;5075716;28;20195;-77
2021/05/11 08:42:13;;;;;;;6.90;1.60;;;23.70;99.90;;;;;;5075662;28;20219;-74
2021/05/11 08:44:40;;;;;;;5.90;1.60;;;23.70;99.90;;;;;;5075472;28;20299;-74
2021/05/11 08:47:06;;;;;;;3.53;1.35;;;23.90;99.90;;;;;;5075385;28;20199;-76
2021/05/11 08:49:33;;;;;;;4.78;1.58;;;24.30;99.90;;;;;;5067387;28;20626;-77
2021/05/11 08:52:03;;;;;;;4.57;1.45;;;24.40;99.90;;;;;;5063575;28;20227;-74
2021/05/11 08:54:44;;;;;;;5.03;1.50;;;24.30;99.90;;;;;;5061624;28;20198;-73
2021/05/11 09:04:33;;;;;;;5.57;1.83;;;24.40;99.90;;;;;;5072783;28;20706;-74
2021/05/11 09:25:19;;;;;;;3.15;1.23;;;24.30;99.90;;;;;;5055209;28;20249;-74
2021/05/11 09:27:55;;;;;;;3.75;1.60;;;24.70;99.90;;;;;;5054896;28;20196;-76
2021/05/11 09:30:36;;;;;;;5.38;1.40;;;24.70;99.90;;;;;;5055285;28;20213;-74
2021/05/11 09:33:13;;;;;;;8.48;1.85;;;24.50;99.90;;;;;;5054972;28;20202;-75
2021/05/11 10:36:42;;;;;;;7.50;1.90;;;25.40;99.90;;;;;;5094040;28;20194;-74
2021/05/11 10:39:42;;;;;;;5.07;1.98;;;25.40;99.90;;;;;;5093909;28;20224;-76
2021/05/11 10:48:16;;;;;;;10.88;2.25;;;25.50;99.90;;;;;;5062343;28;20202;-76
2021/05/11 10:50:48;;;;;;;8.48;2.30;;;25.70;99.90;;;;;;5093731;28;20214;-77
2021/05/11 10:53:39;;;;;;;7.43;2.03;;;25.90;99.90;;;;;;5093860;28;20233;-74
2021/05/11 10:57:05;;;;;;;6.63;1.50;;;27.00;99.90;;;;;;5093710;28;20193;-73
2021/05/11 11:02:36;;;;;;;5.57;1.38;;;28.50;99.90;;;;;;5053352;28;20645;-76
2021/05/11 11:05:04;;;;;;;6.45;1.40;;;29.70;99.90;;;;;;5053196;28;20637;-77
2021/05/11 11:07:32;;;;;;;6.35;1.63;;;31.20;99.90;;;;;;5053279;28;20203;-76
2021/05/11 11:10:00;;;;;;;5.35;1.83;;;32.00;99.90;;;;;;5053513;28;20354;-76
2021/05/11 11:12:40;;;;;;;5.53;1.40;;;32.80;99.90;;;;;;5052887;28;20199;-74
2021/05/11 11:15:12;;;;;;;13.15;2.08;;;33.30;99.90;;;;;;5077488;28;20207;-77
2021/05/11 11:17:52;;;;;;;6.82;1.90;;;33.40;99.90;;;;;;5079598;28;20236;-76
2021/05/11 11:20:28;;;;;;;4.45;1.40;;;33.40;99.90;;;;;;5071841;28;20604;-75
2021/05/11 11:25:41;;;;;;;6.75;1.52;;;35.70;99.10;;;;;;5079650;28;20198;-79
2021/05/11 11:28:07;;;;;;;5.32;1.67;;;36.40;96.00;;;;;;5093142;28;20273;-77
2021/05/11 11:30:34;;;;;;;3.42;1.50;;;36.80;95.00;;;;;;5077720;28;20706;-78
2021/05/11 11:33:02;;;;;;;4.15;1.40;;;36.80;92.80;;;;;;5072593;28;20198;-73
2021/05/11 11:35:32;;;;;;;5.07;1.70;;;36.20;92.60;;;;;;5073217;28;20191;-74
2021/05/11 11:37:59;;;;;;;5.20;1.75;;;35.20;93.50;;;;;;5072069;28;20188;-74
2021/05/11 11:40:26;;;;;;;3.55;1.60;;;34.80;91.70;;;;;;5073494;28;20325;-73
2021/05/11 11:42:54;;;;;;;5.35;1.70;;;35.20;91.20;;;;;;5075228;28;20184;-73
2021/05/11 11:45:26;;;;;;;5.65;1.48;;;34.20;90.00;;;;;;5082446;28;20589;-74
2021/05/11 11:47:56;;;;;;;5.47;1.23;;;32.80;91.10;;;;;;5074359;28;20188;-74
2021/05/11 11:50:23;;;;;;;2.38;1.00;;;30.50;91.20;;;;;;5073602;28;20231;-75
2021/05/11 11:53:00;;;;;;;5.07;1.27;;;29.40;91.50;;;;;;5074996;28;20192;-75
2021/05/11 11:55:42;;;;;;;2.00;1.30;;;28.80;92.80;;;;;;5074148;28;20184;-73
2021/05/11 11:58:09;;;;;;;6.53;1.30;;;28.70;93.00;;;;;;5073305;28;20237;-74
2021/05/11 12:00:37;;;;;;;3.83;1.30;;;29.00;92.70;;;;;;5073307;28;20226;-76
2021/05/11 12:03:05;;;;;;;4.03;1.30;;;29.30;93.50;;;;;;5072947;28;20280;-75
2021/05/11 12:05:33;;;;;;;4.22;1.35;;;29.20;92.30;;;;;;5072577;28;20290;-72
2021/05/11 12:08:07;;;;;;;7.35;1.55;;;28.80;93.00;;;;;;5072653;28;20199;-74
2021/05/11 12:10:37;;;;;;;1.98;0.93;;;28.40;93.90;;;;;;5072506;28;20843;-75
2021/05/11 12:13:05;;;;;;;3.50;1.10;;;28.60;95.70;;;;;;5072173;28;20196;-76
2021/05/11 12:15:33;;;;;;;4.43;1.15;;;28.80;93.50;;;;;;5083029;28;20212;-74
2021/05/11 12:18:06;;;;;;;7.43;1.00;;;28.70;93.10;;;;;;5072788;28;20596;-77
2021/05/11 12:20:33;;;;;;;4.47;1.10;;;28.30;94.30;;;;;;5072147;28;20210;-74
2021/05/11 12:23:04;;;;;;;3.70;1.30;;;28.00;94.40;;;;;;5071631;28;20218;-78
2021/05/11 12:25:31;;;;;;;3.63;1.00;;;28.00;94.60;;;;;;5072502;28;20286;-73
2021/05/11 12:27:57;;;;;;;6.43;1.27;;;27.90;95.20;;;;;;5075858;28;20279;-74
2021/05/11 12:30:40;;;;;;;12.13;2.38;;;27.70;95.50;;;;;;5076029;28;20216;-77
2021/05/11 12:33:10;;;;;;;5.28;1.73;;;26.80;96.80;;;;;;5076183;28;20183;-74
2021/05/11 12:35:37;;;;;;;9.32;2.05;;;25.90;97.60;;;;;;5075939;28;20255;-77
2021/05/11 12:38:15;;;;;;;6.65;1.65;;;25.30;98.00;;;;;;5076270;28;20217;-73
2021/05/11 12:40:48;;;;;;;7.65;1.98;;;24.40;99.00;;;;;;5075797;28;20240;-73
2021/05/11 12:43:15;;;;;;;7.40;1.45;;;23.80;99.90;;;;;;5075932;28;20695;-73
2021/05/11 12:45:52;;;;;;;4.03;1.20;;;23.10;99.90;;;;;;5092928;28;20645;-73
2021/05/11 12:48:18;;;;;;;4.68;1.20;;;21.90;99.90;;;;;;5095919;28;20195;-73
2021/05/11 12:50:46;;;;;;;9.50;1.57;;;21.10;99.90;;;;;;5096031;28;20250;-73
2021/05/11 12:53:30;;;;;;;8.10;2.10;;;20.10;99.90;;;;;;5096176;28;20195;-74
2021/05/11 12:56:15;;;;;;;6.73;1.50;;;19.30;99.90;;;;;;5096250;28;20217;-76
2021/05/11 12:58:57;;;;;;;6.43;1.87;;;18.50;99.90;;;;;;5096050;28;20183;-76
2021/05/11 13:01:33;;;;;;;15.47;1.80;;;17.60;99.90;;;;;;5096269;28;20198;-75
2021/05/11 13:04:19;;;;;;;6.80;1.60;;;16.90;99.90;;;;;;5096036;28;20191;-77
2021/05/11 13:13:37;;;;;;;5.47;1.20;;;15.70;99.90;;;;;;5095954;28;20302;-78
2021/05/11 13:15:23;;;;;;;10.70;2.10;;;15.10;99.90;;;;;;5095392;28;20202;-84
2021/05/11 13:20:58;;;;;;;8.30;1.43;;;14.60;99.90;;;;;;5033450;28;20292;-78
2021/05/11 13:25:07;;;;;;;7.77;1.37;;;14.50;99.90;;;;;;5070690;28;20196;-80
2021/05/11 13:26:14;;;;;;;4.53;1.57;;;14.30;99.90;;;;;;5074901;28;20195;-85
2021/05/11 13:28:47;;;;;;;5.67;1.40;;;14.20;99.90;;;;;;5075187;28;20202;-80
2021/05/11 13:31:22;;;;;;;4.83;1.40;;;14.10;99.90;;;;;;5074098;28;20616;-81
2021/05/11 13:33:54;;;;;;;8.60;1.37;;;14.00;99.90;;;;;;5074567;28;20582;-82
2021/05/11 13:36:21;;;;;;;4.17;1.40;;;14.10;99.90;;;;;;5072265;28;20203;-80
2021/05/11 13:38:48;;;;;;;4.37;1.37;;;14.20;99.90;;;;;;5074444;28;20190;-83
2021/05/11 13:41:14;;;;;;;6.57;1.37;;;14.10;99.90;;;;;;5075326;28;20226;-80
2021/05/11 13:43:40;;;;;;;3.80;1.13;;;14.10;99.90;;;;;;5094553;28;20202;-82
2021/05/11 13:46:07;;;;;;;4.53;1.63;;;14.10;99.90;;;;;;5094722;28;20237;-81
2021/05/11 13:48:36;;;;;;;3.47;1.10;;;14.00;99.90;;;;;;5095154;28;20285;-81
2021/05/11 13:51:05;;;;;;;2.93;1.30;;;13.70;99.90;;;;;;5094717;28;20750;-83
2021/05/11 13:53:34;;;;;;;7.60;1.57;;;13.40;99.90;;;;;;5084886;28;20222;-81
2021/05/11 13:56:12;;;;;;;8.67;1.40;;;13.20;99.90;;;;;;5074419;28;20196;-81
2021/05/11 14:01:50;;;;;;;3.73;1.20;;;13.00;99.90;;;;;;5073338;28;20254;-80
2021/05/11 14:04:17;;;;;;;2.77;1.00;;;12.90;99.90;;;;;;5054406;28;20203;-80
2021/05/11 14:06:45;;;;;;;2.30;1.17;;;12.90;99.90;;;;;;5054298;28;20231;-80
2021/05/11 14:09:11;;;;;;;3.37;1.20;;;12.90;99.90;;;;;;5073939;28;20198;-78
2021/05/11 14:11:39;;;;;;;1.73;0.87;;;12.90;99.90;;;;;;5094134;28;20591;-81
2021/05/11 14:14:06;;;;;;;4.47;0.90;;;13.10;99.90;;;;;;5094094;28;20284;-78
2021/05/11 14:16:33;;;;;;;2.73;1.10;;;13.20;99.90;;;;;;5094770;28;20229;-81
2021/05/11 14:18:59;;;;;;;4.53;2.40;;;13.40;99.90;;;;;;5095053;28;20202;-78
2021/05/11 14:21:27;;;;;;;3.10;1.00;;;13.80;99.90;;;;;;5071866;28;20866;-78
2021/05/11 14:24:01;;;;;;;3.33;1.00;;;14.20;99.90;;;;;;5073224;28;20210;-78
2021/05/11 14:26:31;;;;;;;2.77;0.90;;;14.40;99.90;;;;;;5077226;28;20191;-78
2021/05/11 14:28:58;;;;;;;2.63;1.00;;;14.60;99.90;;;;;;5086130;28;20605;-80
2021/05/11 14:31:26;;;;;;;3.23;1.00;;;14.90;99.90;;;;;;5081117;28;20808;-78
2021/05/11 14:33:52;;;;;;;2.97;0.90;;;15.40;99.90;;;;;;5079268;28;20194;-81
2021/05/11 14:36:19;;;;;;;4.27;1.10;;;15.80;99.90;;;;;;5081828;28;20681;-79
2021/05/11 14:38:46;;;;;;;5.57;1.40;;;16.00;99.90;;;;;;5078692;28;20274;-79
2021/05/11 14:41:14;;;;;;;4.90;1.63;;;16.20;99.90;;;;;;5080699;28;20238;-80
2021/05/11 14:43:41;;;;;;;4.27;1.60;;;16.20;99.90;;;;;;5082610;28;20290;-79
2021/05/11 14:46:09;;;;;;;6.13;1.50;;;16.40;99.90;;;;;;5081657;28;20277;-78
2021/05/11 14:48:36;;;;;;;5.20;1.57;;;16.70;99.90;;;;;;5083507;28;20187;-82
2021/05/11 14:51:04;;;;;;;4.40;1.20;;;17.00;99.90;;;;;;5081147;28;20267;-78
2021/05/11 14:53:31;;;;;;;4.57;1.70;;;17.20;99.90;;;;;;5082181;28;20187;-79
2021/05/11 14:55:59;;;;;;;7.60;2.70;;;17.40;99.90;;;;;;5085371;28;20195;-78
2021/05/11 14:58:26;;;;;;;5.30;2.00;;;17.70;99.90;;;;;;5085986;28;20256;-78
2021/05/11 15:00:52;;;;;;;6.20;1.80;;;17.80;99.90;;;;;;5083158;28;20233;-79
2021/05/11 15:03:19;;;;;;;7.17;2.47;;;17.60;99.90;;;;;;5082169;28;20279;-80
2021/05/11 15:05:46;;;;;;;7.27;2.30;;;17.70;99.90;;;;;;5079269;28;20315;-81
2021/05/11 15:08:13;;;;;;;7.43;2.40;;;17.80;99.90;;;;;;5082997;28;20290;-78
2021/05/11 15:10:40;;;;;;;6.47;2.40;;;17.60;99.90;;;;;;5081097;28;20272;-78
2021/05/11 15:13:06;;;;;;;10.03;2.50;;;17.70;99.90;;;;;;5079049;28;20904;-79
2021/05/11 15:15:36;;;;;;;7.23;2.50;;;17.60;99.90;;;;;;5072140;28;20196;-79
2021/05/11 15:18:05;;;;;;;7.37;2.93;;;17.40;99.90;;;;;;5068314;28;20737;-78
2021/05/11 15:20:33;;;;;;;6.87;2.90;;;17.00;99.90;;;;;;5072104;28;20572;-79
2021/05/11 15:23:00;;;;;;;6.53;2.97;;;16.60;99.90;;;;;;5070847;28;20270;-78
2021/05/11 15:25:27;;;;;;;8.33;2.83;;;16.60;99.90;;;;;;5077105;28;20199;-78
2021/05/11 15:27:55;;;;;;;7.77;2.90;;;16.60;99.90;;;;;;5074814;28;20209;-78
2021/05/11 15:30:23;;;;;;;9.57;3.10;;;17.00;99.90;;;;;;5079412;28;20258;-78
2021/05/11 15:32:54;;;;;;;7.63;3.00;;;17.50;99.90;;;;;;5082554;28;20195;-79
2021/05/11 15:35:23;;;;;;;7.60;2.50;;;17.90;99.90;;;;;;5080168;28;20233;-77
2021/05/11 15:37:56;;;;;;;6.80;2.50;;;18.20;99.90;;;;;;5078216;28;20195;-78
2021/05/11 15:40:24;;;;;;;6.10;2.43;;;18.50;99.90;;;;;;5080031;28;20207;-78
2021/05/11 15:42:51;;;;;;;4.53;1.80;;;18.60;99.90;;;;;;5078542;28;20863;-79
2021/05/11 15:45:18;;;;;;;7.40;2.27;;;18.60;99.90;;;;;;5082973;28;20191;-77
2021/05/11 15:47:55;;;;;;;4.37;2.07;;;18.40;99.90;;;;;;5081062;28;20199;-77
2021/05/11 15:50:29;;;;;;;6.50;2.20;;;18.50;99.90;;;;;;5083208;28;20228;-78
2021/05/11 15:52:57;;;;;;;4.27;2.23;;;18.50;99.90;;;;;;5081599;28;20237;-81
2021/05/11 15:55:24;;;;;;;4.23;2.00;;;18.70;99.90;;;;;;5081442;28;20187;-78
2021/05/11 15:57:51;;;;;;;5.43;2.10;;;19.00;99.90;;;;;;5083560;28;20186;-78
2021/05/11 16:00:22;;;;;;;5.30;2.13;;;19.10;99.90;;;;;;5081171;28;20593;-81
2021/05/11 16:02:49;;;;;;;4.93;1.77;;;19.20;99.90;;;;;;5084432;28;20179;-80
2021/05/11 16:05:18;;;;;;;5.97;1.90;;;19.20;99.90;;;;;;5084320;28;20717;-80
2021/05/11 16:07:48;;;;;;;4.73;1.90;;;19.20;99.90;;;;;;5084215;28;20656;-80
2021/05/11 16:10:15;;;;;;;5.37;1.80;;;19.20;99.90;;;;;;5081236;28;20211;-78
2021/05/11 16:12:42;;;;;;;4.63;1.67;;;19.40;99.90;;;;;;5088976;28;20198;-81
2021/05/11 16:15:12;;;;;;;3.10;1.90;;;19.50;99.90;;;;;;5082834;28;20190;-80
2021/05/11 16:17:39;;;;;;;4.00;1.47;;;19.70;99.90;;;;;;5085305;28;20269;-77